createdAt,value
2017-06-25T00:01:43.936Z,5.90
2017-06-25T00:04:11.442Z,5.57
2017-06-25T00:06:39.708Z,7.47
2017-06-25T00:09:07.589Z,7.40
2017-06-25T00:11:35.854Z,7.83
2017-06-25T00:14:04.130Z,5.77
2017-06-25T00:16:31.917Z,8.40
2017-06-25T00:18:59.471Z,6.13
2017-06-25T00:21:27.746Z,5.53
2017-06-25T00:23:55.620Z,5.50
2017-06-25T00:26:23.126Z,7.43
2017-06-25T00:28:50.626Z,7.17
2017-06-25T00:31:18.581Z,6.10
2017-06-25T00:33:46.856Z,7.77
2017-06-25T00:36:15.140Z,6.00
2017-06-25T00:38:43.719Z,6.10
2017-06-25T00:41:11.225Z,6.93
2017-06-25T00:43:38.734Z,6.93
2017-06-25T00:46:07.270Z,8.30
2017-06-25T00:48:34.784Z,8.13
2017-06-25T00:51:02.281Z,5.30
2017-06-25T00:53:35.944Z,6.77
2017-06-25T00:56:04.209Z,5.30
2017-06-25T00:58:31.701Z,6.07
2017-06-25T01:00:59.535Z,5.13
2017-06-25T01:03:27.817Z,9.20
2017-06-25T01:05:56.078Z,7.83
2017-06-25T01:08:23.869Z,9.17
2017-06-25T01:10:51.366Z,10.90
2017-06-25T01:13:18.868Z,5.00
2017-06-25T01:15:47.470Z,5.17
2017-06-25T01:18:14.980Z,5.33
2017-06-25T01:20:42.574Z,4.40
2017-06-25T01:23:10.361Z,4.80
2017-06-25T01:25:37.864Z,5.70
2017-06-25T01:28:05.382Z,5.23
2017-06-25T01:30:33.296Z,4.83
2017-06-25T01:33:00.802Z,4.60
2017-06-25T01:35:28.310Z,5.97
2017-06-25T01:37:56.218Z,4.77
2017-06-25T01:40:23.718Z,4.87
2017-06-25T01:42:51.209Z,6.87
2017-06-25T01:45:18.973Z,4.20
2017-06-25T01:47:46.484Z,5.90
2017-06-25T01:50:13.988Z,5.10
2017-06-25T01:52:41.874Z,5.00
2017-06-25T01:55:10.169Z,5.93
2017-06-25T01:57:37.667Z,4.93
2017-06-25T02:00:05.470Z,5.00
2017-06-25T02:02:33.009Z,6.70
2017-06-25T02:05:00.508Z,4.87
2017-06-25T02:07:28.450Z,5.33
2017-06-25T02:09:56.713Z,9.80
2017-06-25T02:12:24.220Z,6.90
2017-06-25T02:14:52.058Z,5.40
2017-06-25T02:17:20.326Z,5.30
2017-06-25T02:19:48.586Z,5.70
2017-06-25T02:22:16.474Z,4.80
2017-06-25T02:24:44.733Z,6.40
2017-06-25T02:27:12.248Z,5.30
2017-06-25T02:29:40.075Z,5.40
2017-06-25T02:32:08.338Z,5.30
2017-06-25T02:34:35.838Z,7.50
2017-06-25T02:37:03.684Z,7.23
2017-06-25T02:39:31.940Z,6.57
2017-06-25T02:41:59.444Z,4.90
2017-06-25T02:44:27.275Z,5.97
2017-06-25T02:46:55.556Z,5.80
2017-06-25T02:49:23.856Z,8.60
2017-06-25T02:51:51.689Z,6.70
2017-06-25T02:54:19.198Z,7.00
2017-06-25T02:56:46.711Z,5.57
2017-06-25T02:59:14.668Z,5.13
2017-06-25T03:01:42.166Z,4.90
2017-06-25T03:04:09.675Z,5.10
2017-06-25T03:06:37.459Z,8.33
2017-06-25T03:09:16.312Z,5.80
2017-06-25T03:11:44.266Z,6.13
2017-06-25T03:14:11.772Z,5.10
2017-06-25T03:16:39.269Z,6.27
2017-06-25T03:19:07.227Z,5.80
2017-06-25T03:21:35.495Z,6.67
2017-06-25T03:24:03.001Z,6.53
2017-06-25T03:26:30.816Z,8.17
2017-06-25T03:28:58.331Z,7.13
2017-06-25T03:31:25.823Z,7.30
2017-06-25T03:33:53.622Z,11.80
2017-06-25T03:36:21.900Z,5.87
2017-06-25T03:38:50.165Z,6.67
2017-06-25T03:41:18.750Z,7.53
2017-06-25T03:43:46.261Z,6.53
2017-06-25T03:46:13.778Z,5.17
2017-06-25T03:48:41.645Z,5.30
2017-06-25T03:51:09.146Z,9.03
2017-06-25T03:53:36.649Z,5.63
2017-06-25T03:56:04.427Z,5.20
2017-06-25T03:58:31.949Z,7.03
2017-06-25T04:00:59.466Z,8.43
2017-06-25T04:03:27.406Z,7.87
2017-06-25T04:05:54.912Z,5.53
2017-06-25T04:08:22.419Z,12.57
2017-06-25T04:10:50.378Z,9.10
2017-06-25T04:13:18.659Z,5.37
2017-06-25T04:15:46.944Z,5.40
2017-06-25T04:18:14.712Z,5.40
2017-06-25T04:20:42.219Z,5.93
2017-06-25T04:23:09.719Z,5.53
2017-06-25T04:25:38.241Z,5.73
2017-06-25T04:28:05.734Z,8.60
2017-06-25T04:30:33.237Z,5.17
2017-06-25T04:33:01.184Z,4.90
2017-06-25T04:35:29.455Z,5.57
2017-06-25T04:37:57.722Z,6.83
2017-06-25T04:40:25.601Z,5.77
2017-06-25T04:42:53.866Z,6.50
2017-06-25T04:45:21.361Z,6.30
2017-06-25T04:47:49.201Z,5.60
2017-06-25T04:50:16.697Z,5.23
2017-06-25T04:52:44.203Z,5.90
2017-06-25T04:55:12.005Z,5.67
2017-06-25T04:57:39.493Z,5.37
2017-06-25T05:00:07.011Z,5.60
2017-06-25T05:02:34.970Z,5.67
2017-06-25T05:05:03.244Z,6.80
2017-06-25T05:07:31.541Z,5.30
2017-06-25T05:09:59.406Z,6.03
2017-06-25T05:12:26.911Z,5.37
2017-06-25T05:14:54.456Z,5.47
2017-06-25T05:17:22.375Z,5.10
2017-06-25T05:19:50.662Z,5.27
2017-06-25T05:22:18.175Z,4.90
2017-06-25T05:24:45.985Z,7.03
2017-06-25T05:27:13.769Z,5.17
2017-06-25T05:29:41.295Z,5.20
2017-06-25T05:32:09.985Z,4.93
2017-06-25T05:34:38.247Z,5.30
2017-06-25T05:37:05.750Z,6.70
2017-06-25T05:39:33.518Z,5.67
2017-06-25T05:42:01.019Z,5.60
2017-06-25T05:44:28.521Z,5.67
2017-06-25T05:46:56.363Z,5.33
2017-06-25T05:49:23.875Z,4.90
2017-06-25T05:51:51.379Z,5.30
2017-06-25T05:54:19.154Z,5.27
2017-06-25T05:56:46.667Z,5.57
2017-06-25T05:59:14.181Z,7.13
2017-06-25T06:01:42.125Z,4.60
2017-06-25T06:04:10.395Z,5.17
2017-06-25T06:06:38.667Z,5.47
2017-06-25T06:09:06.487Z,5.30
2017-06-25T06:11:33.995Z,6.00
2017-06-25T06:14:02.271Z,7.70
2017-06-25T06:16:30.059Z,5.33
2017-06-25T06:18:57.581Z,5.20
2017-06-25T06:21:25.081Z,5.57
2017-06-25T06:23:52.883Z,8.60
2017-06-25T06:26:20.478Z,5.23
2017-06-25T06:28:48.266Z,6.43
2017-06-25T06:31:16.083Z,5.20
2017-06-25T06:33:43.608Z,4.77
2017-06-25T06:36:11.147Z,5.27
2017-06-25T06:38:38.699Z,4.80
2017-06-25T06:41:06.201Z,5.97
2017-06-25T06:43:34.037Z,5.07
2017-06-25T06:46:01.570Z,5.07
2017-06-25T06:48:29.103Z,4.70
2017-06-25T06:50:57.006Z,5.73
2017-06-25T06:53:24.535Z,4.30
2017-06-25T06:55:52.094Z,6.00
2017-06-25T06:58:20.056Z,8.60
2017-06-25T07:00:47.574Z,4.83
2017-06-25T07:03:15.188Z,5.30
2017-06-25T07:05:43.023Z,4.50
2017-06-25T07:08:11.031Z,6.00
2017-06-25T07:10:38.615Z,5.30
2017-06-25T07:13:06.406Z,6.03
2017-06-25T07:15:33.973Z,4.60
2017-06-25T07:18:01.505Z,5.90
2017-06-25T07:20:29.292Z,4.43
2017-06-25T07:22:57.162Z,5.07
2017-06-25T07:25:24.674Z,6.20
2017-06-25T07:27:52.226Z,5.73
2017-06-25T07:30:20.018Z,4.27
2017-06-25T07:32:47.538Z,6.10
2017-06-25T07:35:15.118Z,4.80
2017-06-25T07:37:42.926Z,6.17
2017-06-25T07:40:10.427Z,6.03
2017-06-25T07:42:37.932Z,5.47
2017-06-25T07:45:05.852Z,4.53
2017-06-25T07:47:33.357Z,8.20
2017-06-25T07:50:00.858Z,4.97
2017-06-25T07:52:28.660Z,3.50
2017-06-25T07:54:56.174Z,6.50
2017-06-25T07:57:23.703Z,5.63
2017-06-25T07:59:51.667Z,4.93
2017-06-25T08:02:19.187Z,5.03
2017-06-25T08:04:46.697Z,5.83
2017-06-25T08:07:14.514Z,5.50
2017-06-25T08:09:42.031Z,6.97
2017-06-25T08:12:09.574Z,6.80
2017-06-25T08:14:37.397Z,4.00
2017-06-25T08:17:05.676Z,4.83
2017-06-25T08:19:33.195Z,6.00
2017-06-25T08:22:34.182Z,4.97
2017-06-25T08:25:02.543Z,3.83
2017-06-25T08:27:30.055Z,8.53
2017-06-25T08:29:57.891Z,7.70
2017-06-25T08:32:26.453Z,6.27
2017-06-25T08:34:54.227Z,5.70
2017-06-25T08:37:24.712Z,5.20
2017-06-25T08:39:55.902Z,6.40
2017-06-25T08:42:23.484Z,4.47
2017-06-25T08:44:51.951Z,5.00
2017-06-25T08:47:19.450Z,6.00
2017-06-25T08:49:46.958Z,6.83
2017-06-25T08:52:14.830Z,8.87
2017-06-25T08:54:42.344Z,5.33
2017-06-25T08:57:09.858Z,6.00
2017-06-25T08:59:37.820Z,9.10
2017-06-25T09:02:05.336Z,5.63
2017-06-25T09:04:32.834Z,6.30
2017-06-25T09:07:00.811Z,5.07
2017-06-25T09:09:28.312Z,5.03
2017-06-25T09:11:55.817Z,4.87
2017-06-25T09:14:23.585Z,5.30
2017-06-25T09:16:51.096Z,5.37
2017-06-25T09:19:18.615Z,5.30
2017-06-25T09:21:46.430Z,7.50
2017-06-25T09:24:13.934Z,5.10
2017-06-25T09:26:41.446Z,5.10
2017-06-25T09:29:09.238Z,8.83
2017-06-25T09:31:36.756Z,4.90
2017-06-25T09:34:04.279Z,4.33
2017-06-25T09:36:32.043Z,5.50
2017-06-25T09:38:59.582Z,5.30
2017-06-25T09:41:27.085Z,5.23
2017-06-25T09:43:54.875Z,10.00
2017-06-25T09:46:22.447Z,4.90
2017-06-25T09:48:49.999Z,6.50
2017-06-25T09:51:17.828Z,3.97
2017-06-25T09:53:45.351Z,4.80
2017-06-25T09:56:12.899Z,4.70
2017-06-25T09:58:40.700Z,3.33
2017-06-25T10:01:08.222Z,5.53
2017-06-25T10:03:35.735Z,5.23
2017-06-25T10:06:03.531Z,8.73
2017-06-25T10:08:31.040Z,7.40
2017-06-25T10:10:58.564Z,7.10
2017-06-25T10:13:26.363Z,4.80
2017-06-25T10:15:53.879Z,5.00
2017-06-25T10:18:21.413Z,4.63
2017-06-25T10:20:49.237Z,3.97
2017-06-25T10:23:16.763Z,4.90
2017-06-25T10:25:44.288Z,3.97
2017-06-25T10:28:12.147Z,3.00
2017-06-25T10:30:39.671Z,4.13
2017-06-25T10:33:07.267Z,3.10
2017-06-25T10:35:35.278Z,3.00
2017-06-25T10:38:03.192Z,3.17
2017-06-25T10:40:30.750Z,2.60
2017-06-25T10:42:58.369Z,2.27
2017-06-25T10:45:26.256Z,2.87
2017-06-25T10:47:53.834Z,1.97
2017-06-25T10:50:21.355Z,3.23
2017-06-25T10:52:49.211Z,2.77
2017-06-25T10:55:16.737Z,14.10
2017-06-25T10:57:44.267Z,2.90
2017-06-25T11:00:12.148Z,2.50
2017-06-25T11:02:39.680Z,2.03
2017-06-25T11:05:07.199Z,2.13
2017-06-25T11:07:34.728Z,2.20
2017-06-25T11:10:02.243Z,2.63
2017-06-25T11:12:29.772Z,2.23
2017-06-25T11:14:57.290Z,2.23
2017-06-25T11:17:24.815Z,2.70
2017-06-25T11:19:52.781Z,2.60
2017-06-25T11:22:20.312Z,3.27
2017-06-25T11:24:47.826Z,2.07
2017-06-25T11:27:15.802Z,2.40
2017-06-25T11:29:43.340Z,2.33
2017-06-25T11:32:10.879Z,2.40
2017-06-25T11:34:39.276Z,3.40
2017-06-25T11:37:07.266Z,2.57
2017-06-25T11:39:35.067Z,2.40
2017-06-25T11:42:02.628Z,2.77
2017-06-25T11:44:30.220Z,3.60
2017-06-25T11:46:57.758Z,3.57
2017-06-25T11:49:25.549Z,3.00
2017-06-25T11:51:53.125Z,2.43
2017-06-25T11:54:20.641Z,3.00
2017-06-25T11:56:48.154Z,3.13
2017-06-25T11:59:15.838Z,5.03
2017-06-25T12:01:43.418Z,2.40
2017-06-25T12:04:10.942Z,2.70
2017-06-25T12:06:38.494Z,2.33
2017-06-25T12:09:06.173Z,2.10
2017-06-25T12:11:33.721Z,2.40
2017-06-25T12:14:01.230Z,2.37
2017-06-25T12:16:29.234Z,2.20
2017-06-25T12:18:56.757Z,2.17
2017-06-25T12:21:24.265Z,2.10
2017-06-25T12:23:51.828Z,2.00
2017-06-25T12:26:19.362Z,2.23
2017-06-25T12:28:46.929Z,2.90
2017-06-25T12:31:14.475Z,1.90
2017-06-25T12:33:41.986Z,1.90
2017-06-25T12:36:09.509Z,2.27
2017-06-25T12:38:37.040Z,3.97
2017-06-25T12:41:05.022Z,4.23
2017-06-25T12:43:32.628Z,2.83
2017-06-25T12:46:00.157Z,3.67
2017-06-25T12:48:27.721Z,2.67
2017-06-25T12:50:55.463Z,2.50
2017-06-25T12:53:23.039Z,2.50
2017-06-25T12:55:50.569Z,3.00
2017-06-25T12:58:18.155Z,3.53
2017-06-25T13:00:45.799Z,3.20
2017-06-25T13:03:13.349Z,2.80
2017-06-25T13:05:41.205Z,6.90
2017-06-25T13:08:09.034Z,2.87
2017-06-25T13:10:36.566Z,2.20
2017-06-25T13:13:04.125Z,2.23
2017-06-25T13:15:31.758Z,2.63
2017-06-25T13:17:59.856Z,2.60
2017-06-25T13:20:27.472Z,2.57
2017-06-25T13:22:55.850Z,2.63
2017-06-25T13:25:24.583Z,5.10
2017-06-25T13:27:52.417Z,2.80
2017-06-25T13:30:20.005Z,2.60
2017-06-25T13:32:47.563Z,2.50
2017-06-25T13:35:15.240Z,3.03
2017-06-25T13:37:43.139Z,2.33
2017-06-25T13:40:10.742Z,2.60
2017-06-25T13:42:38.347Z,5.47
2017-06-25T13:45:05.913Z,3.10
2017-06-25T13:47:33.531Z,3.00
2017-06-25T13:50:01.487Z,3.20
2017-06-25T13:52:29.002Z,3.00
2017-06-25T13:54:56.547Z,2.93
2017-06-25T13:57:24.092Z,2.47
2017-06-25T13:59:51.620Z,4.37
2017-06-25T14:02:19.134Z,2.50
2017-06-25T14:04:46.677Z,3.30
2017-06-25T14:07:14.178Z,3.47
2017-06-25T14:09:41.710Z,5.33
2017-06-25T14:12:09.628Z,3.20
2017-06-25T14:14:37.146Z,3.10
2017-06-25T14:17:04.686Z,3.63
2017-06-25T14:19:32.214Z,2.73
2017-06-25T14:21:59.751Z,3.00
2017-06-25T14:24:27.273Z,3.70
2017-06-25T14:26:55.206Z,4.67
2017-06-25T14:29:22.776Z,2.97
2017-06-25T14:31:50.283Z,3.37
2017-06-25T14:34:18.180Z,2.97
2017-06-25T14:36:45.743Z,2.80
2017-06-25T14:39:13.326Z,2.70
2017-06-25T14:41:40.873Z,2.30
2017-06-25T14:44:08.457Z,4.30
2017-06-25T14:46:36.056Z,3.40
2017-06-25T14:49:03.637Z,3.13
2017-06-25T14:51:31.489Z,3.10
2017-06-25T14:53:59.113Z,2.30
2017-06-25T14:56:26.657Z,3.60
2017-06-25T14:58:54.232Z,2.53
2017-06-25T15:01:21.739Z,3.23
2017-06-25T15:03:49.578Z,3.00
2017-06-25T15:06:17.197Z,2.80
2017-06-25T15:08:44.735Z,2.60
2017-06-25T15:11:12.629Z,2.40
2017-06-25T15:13:40.234Z,2.50
2017-06-25T15:16:07.797Z,2.40
2017-06-25T15:18:35.385Z,2.07
2017-06-25T15:21:02.916Z,2.83
2017-06-25T15:23:30.773Z,2.90
2017-06-25T15:25:58.346Z,3.33
2017-06-25T15:28:25.897Z,3.07
2017-06-25T15:30:53.475Z,3.30
2017-06-25T15:33:21.082Z,3.13
2017-06-25T15:35:48.608Z,2.90
2017-06-25T15:38:16.219Z,3.17
2017-06-25T15:40:43.796Z,4.00
2017-06-25T15:43:11.359Z,3.50
2017-06-25T15:45:39.285Z,3.30
2017-06-25T15:48:06.885Z,2.60
2017-06-25T15:50:34.577Z,2.93
2017-06-25T15:53:02.503Z,2.20
2017-06-25T15:55:30.262Z,3.37
2017-06-25T15:57:57.857Z,2.30
2017-06-25T16:00:25.877Z,3.20
2017-06-25T16:02:53.467Z,2.00
2017-06-25T16:05:21.033Z,2.43
2017-06-25T16:07:48.898Z,3.93
2017-06-25T16:10:16.868Z,2.43
2017-06-25T16:12:44.591Z,2.30
2017-06-25T16:15:12.192Z,3.27
2017-06-25T16:17:40.000Z,4.40
2017-06-25T16:20:07.921Z,4.23
2017-06-25T16:22:35.504Z,2.30
2017-06-25T16:25:03.124Z,2.40
2017-06-25T16:27:31.030Z,3.53
2017-06-25T16:29:59.254Z,2.93
2017-06-25T16:32:26.965Z,2.87
2017-06-25T16:34:54.592Z,2.40
2017-06-25T16:37:22.820Z,2.93
2017-06-25T16:39:50.705Z,2.37
2017-06-25T16:42:19.447Z,2.73
2017-06-25T16:44:47.044Z,2.83
2017-06-25T16:47:15.262Z,2.57
2017-06-25T16:49:43.105Z,2.83
2017-06-25T16:52:11.043Z,3.73
2017-06-25T16:54:38.789Z,3.83
2017-06-25T16:57:06.445Z,2.70
2017-06-25T16:59:34.048Z,2.60
2017-06-25T17:02:01.713Z,2.30
2017-06-25T17:04:29.276Z,3.33
2017-06-25T17:06:57.284Z,2.87
2017-06-25T17:09:24.838Z,3.70
2017-06-25T17:11:53.227Z,2.93
2017-06-25T17:14:21.319Z,2.90
2017-06-25T17:16:52.203Z,3.00
2017-06-25T17:19:20.146Z,8.47
2017-06-25T17:21:53.863Z,3.17
2017-06-25T17:24:21.848Z,2.80
2017-06-25T17:26:49.710Z,2.60
2017-06-25T17:29:17.798Z,2.90
2017-06-25T17:31:45.738Z,2.07
2017-06-25T17:34:13.286Z,2.80
2017-06-25T17:36:40.966Z,3.03
2017-06-25T17:39:08.557Z,3.50
2017-06-25T17:41:36.790Z,2.40
2017-06-25T17:44:07.628Z,2.60
2017-06-25T17:46:35.201Z,2.60
2017-06-25T17:49:02.753Z,1.83
2017-06-25T17:51:30.594Z,2.70
2017-06-25T17:53:58.154Z,2.90
2017-06-25T17:56:25.689Z,2.50
2017-06-25T17:58:53.530Z,2.50
2017-06-25T18:01:21.051Z,2.93
2017-06-25T18:03:48.616Z,4.00
2017-06-25T18:06:16.166Z,2.40
2017-06-25T18:08:43.745Z,2.17
2017-06-25T18:11:11.630Z,2.73
2017-06-25T18:13:39.252Z,2.50
2017-06-25T18:16:06.791Z,2.30
2017-06-25T18:18:34.628Z,2.17
2017-06-25T18:21:02.174Z,3.20
2017-06-25T18:23:29.759Z,2.53
2017-06-25T18:25:57.818Z,2.13
2017-06-25T18:28:25.441Z,2.00
2017-06-25T18:30:53.991Z,2.50
2017-06-25T18:33:21.526Z,2.07
2017-06-25T18:35:49.104Z,1.90
2017-06-25T18:38:16.708Z,2.03
2017-06-25T18:40:44.237Z,2.00
2017-06-25T18:43:12.280Z,2.33
2017-06-25T18:45:40.097Z,2.10
2017-06-25T18:48:07.625Z,2.50
2017-06-25T18:50:35.325Z,3.60
2017-06-25T18:53:02.950Z,2.00
2017-06-25T18:55:30.547Z,2.03
2017-06-25T18:57:59.755Z,2.23
2017-06-25T19:00:31.152Z,2.10
2017-06-25T19:02:58.827Z,2.47
2017-06-25T19:05:26.390Z,1.90
2017-06-25T19:07:54.236Z,1.90
2017-06-25T19:10:21.863Z,2.10
2017-06-25T19:12:49.382Z,2.00
2017-06-25T19:15:17.246Z,3.20
2017-06-25T19:17:44.856Z,2.13
2017-06-25T19:20:12.488Z,1.90
2017-06-25T19:22:40.090Z,2.57
2017-06-25T19:25:08.116Z,2.03
2017-06-25T19:27:35.731Z,2.67
2017-06-25T19:30:03.320Z,2.77
2017-06-25T19:32:31.260Z,3.10
2017-06-25T19:34:58.835Z,2.17
2017-06-25T19:37:26.384Z,1.90
2017-06-25T19:39:54.265Z,3.27
2017-06-25T19:42:21.826Z,2.27
2017-06-25T19:44:49.819Z,2.80
2017-06-25T19:47:17.337Z,2.13
2017-06-25T19:49:44.897Z,2.60
2017-06-25T19:52:12.497Z,2.10
2017-06-25T19:54:40.055Z,1.87
2017-06-25T19:57:07.904Z,2.33
2017-06-25T19:59:35.442Z,2.50
2017-06-25T20:02:03.110Z,2.13
2017-06-25T20:04:31.050Z,2.60
2017-06-25T20:06:58.562Z,4.33
2017-06-25T20:09:26.169Z,4.80
2017-06-25T20:11:53.721Z,2.30
2017-06-25T20:14:21.246Z,2.27
2017-06-25T20:16:49.084Z,1.90
2017-06-25T20:19:16.591Z,2.20
2017-06-25T20:21:44.149Z,2.93
2017-06-25T20:24:11.722Z,2.80
2017-06-25T20:26:39.299Z,1.80
2017-06-25T20:29:06.871Z,2.50
2017-06-25T20:31:34.439Z,1.83
2017-06-25T20:34:02.868Z,2.20
2017-06-25T20:36:30.481Z,1.70
2017-06-25T20:38:58.004Z,1.67
2017-06-25T20:41:25.525Z,1.70
2017-06-25T20:43:53.981Z,2.27
2017-06-25T20:46:22.479Z,2.10
2017-06-25T20:48:50.100Z,2.23
2017-06-25T20:51:18.840Z,1.93
2017-06-25T20:53:46.540Z,1.80
2017-06-25T20:56:14.349Z,3.10
2017-06-25T20:58:41.935Z,2.20
2017-06-25T21:01:09.470Z,3.53
2017-06-25T21:03:37.067Z,2.03
2017-06-25T21:06:04.913Z,2.07
2017-06-25T21:08:32.547Z,2.20
2017-06-25T21:11:00.092Z,2.23
2017-06-25T21:13:28.389Z,2.30
2017-06-25T21:15:55.983Z,2.30
2017-06-25T21:18:23.523Z,2.10
2017-06-25T21:20:51.237Z,3.43
2017-06-25T21:23:18.786Z,2.50
2017-06-25T21:25:46.479Z,2.10
2017-06-25T21:28:14.051Z,3.60
2017-06-25T21:30:42.481Z,2.17
2017-06-25T21:33:10.040Z,2.07
2017-06-25T21:35:38.333Z,2.20
2017-06-25T21:38:06.684Z,2.90
2017-06-25T21:40:34.230Z,1.60
2017-06-25T21:43:02.092Z,2.30
2017-06-25T21:45:29.604Z,1.80
2017-06-25T21:47:57.894Z,4.33
2017-06-25T21:50:25.438Z,4.00
2017-06-25T21:52:52.945Z,2.00
2017-06-25T21:55:20.482Z,3.50
2017-06-25T21:57:48.028Z,7.50
2017-06-25T22:00:15.821Z,2.10
2017-06-25T22:02:43.367Z,2.50
2017-06-25T22:05:10.913Z,3.03
2017-06-25T22:07:38.722Z,3.37
2017-06-25T22:10:06.233Z,2.17
2017-06-25T22:12:33.768Z,5.70
2017-06-25T22:15:01.309Z,5.43
2017-06-25T22:17:28.862Z,2.40
2017-06-25T22:19:56.382Z,2.20
2017-06-25T22:22:23.940Z,2.23
2017-06-25T22:24:51.470Z,1.83
2017-06-25T22:27:19.002Z,2.93
2017-06-25T22:29:46.840Z,2.43
2017-06-25T22:32:14.404Z,3.00
2017-06-25T22:34:41.924Z,2.60
2017-06-25T22:37:09.467Z,3.83
2017-06-25T22:39:37.758Z,3.30
2017-06-25T22:42:05.641Z,4.10
2017-06-25T22:44:33.184Z,2.60
2017-06-25T22:47:00.687Z,3.40
2017-06-25T22:49:28.260Z,3.30
2017-06-25T22:51:55.792Z,5.10
2017-06-25T22:54:23.318Z,6.87
2017-06-25T22:56:50.833Z,2.87
2017-06-25T22:59:18.403Z,2.70
2017-06-25T23:01:45.998Z,2.73
2017-06-25T23:04:13.952Z,7.10
2017-06-25T23:06:42.210Z,2.40
2017-06-25T23:09:09.721Z,2.70
2017-06-25T23:11:37.514Z,3.07
2017-06-25T23:14:05.058Z,2.87
2017-06-25T23:16:32.572Z,4.80
2017-06-25T23:19:00.378Z,2.83
2017-06-25T23:21:27.874Z,2.63
2017-06-25T23:23:55.394Z,3.47
2017-06-25T23:26:23.175Z,3.40
2017-06-25T23:28:50.703Z,3.27
2017-06-25T23:31:18.214Z,2.60
2017-06-25T23:33:45.740Z,4.63
2017-06-25T23:36:13.257Z,3.37
2017-06-25T23:38:40.815Z,5.77
2017-06-25T23:41:09.383Z,2.70
2017-06-25T23:43:36.917Z,5.80
2017-06-25T23:46:04.470Z,3.10
2017-06-25T23:48:31.982Z,3.67
2017-06-25T23:50:59.503Z,2.90
2017-06-25T23:53:27.102Z,2.60
2017-06-25T23:55:54.713Z,5.60
2017-06-25T23:58:22.254Z,3.53
